createdAt,value
2023-05-20T00:02:15.916Z,0.90
2023-05-20T00:04:43.884Z,0.85
2023-05-20T00:07:10.699Z,1.05
2023-05-20T00:09:39.712Z,0.65
2023-05-20T00:12:06.744Z,1.02
2023-05-20T00:14:33.283Z,1.13
2023-05-20T00:17:00.059Z,1.23
2023-05-20T00:19:26.896Z,1.05
2023-05-20T00:21:53.512Z,1.13
2023-05-20T00:24:20.132Z,1.00
2023-05-20T00:26:46.680Z,1.35
2023-05-20T00:29:13.931Z,0.93
2023-05-20T00:31:40.687Z,0.95
2023-05-20T00:34:07.660Z,0.70
2023-05-20T00:36:35.473Z,2.47
2023-05-20T00:39:02.248Z,1.67
2023-05-20T00:41:28.908Z,1.13
2023-05-20T00:44:01.581Z,1.42
2023-05-20T00:46:29.295Z,0.98
2023-05-20T00:48:56.284Z,0.95
2023-05-20T00:51:47.735Z,1.10
2023-05-20T00:54:14.674Z,0.50
2023-05-20T00:56:43.406Z,1.05
2023-05-20T00:59:10.198Z,0.73
2023-05-20T01:01:36.938Z,1.10
2023-05-20T01:04:04.171Z,0.85
2023-05-20T01:06:30.804Z,1.75
2023-05-20T01:08:57.372Z,1.27
2023-05-20T01:11:33.503Z,0.95
2023-05-20T01:16:50.056Z,1.63
2023-05-20T01:19:35.342Z,1.30
2023-05-20T01:22:07.850Z,0.98
2023-05-20T01:24:34.499Z,1.33
2023-05-20T01:27:01.049Z,0.90
2023-05-20T01:29:27.781Z,1.15
2023-05-20T01:31:56.927Z,1.05
2023-05-20T01:34:25.408Z,1.17
2023-05-20T01:36:52.509Z,1.23
2023-05-20T01:39:19.980Z,0.95
2023-05-20T01:41:50.620Z,1.50
2023-05-20T01:44:17.396Z,1.27
2023-05-20T01:46:54.983Z,2.03
2023-05-20T01:49:47.732Z,1.05
2023-05-20T01:52:14.376Z,0.73
2023-05-20T01:54:43.678Z,1.50
2023-05-20T01:57:10.302Z,1.08
2023-05-20T01:59:36.936Z,1.25
2023-05-20T02:02:04.330Z,1.25
2023-05-20T02:04:31.187Z,1.10
2023-05-20T02:06:57.803Z,1.17
2023-05-20T02:09:34.973Z,2.65
2023-05-20T02:12:01.603Z,1.13
2023-05-20T02:14:28.302Z,1.23
2023-05-20T02:16:55.322Z,1.30
2023-05-20T02:19:23.921Z,1.25
2023-05-20T02:21:51.401Z,1.33
2023-05-20T02:24:18.004Z,1.30
2023-05-20T02:26:46.777Z,1.40
2023-05-20T02:29:14.920Z,1.35
2023-05-20T02:31:42.733Z,1.35
2023-05-20T02:34:09.363Z,1.45
2023-05-20T02:36:37.364Z,1.55
2023-05-20T02:39:03.939Z,1.70
2023-05-20T02:41:31.376Z,0.98
2023-05-20T02:43:57.916Z,1.02
2023-05-20T02:46:24.439Z,1.45
2023-05-20T02:49:00.156Z,1.60
2023-05-20T02:51:36.521Z,1.27
2023-05-20T02:54:12.577Z,1.10
2023-05-20T02:56:39.518Z,1.25
2023-05-20T02:59:07.178Z,1.30
2023-05-20T03:01:35.503Z,1.33
2023-05-20T03:04:03.654Z,1.70
2023-05-20T03:06:57.802Z,1.05
2023-05-20T03:09:25.204Z,1.65
2023-05-20T03:11:51.852Z,2.13
2023-05-20T03:14:18.422Z,1.27
2023-05-20T03:16:45.114Z,1.38
2023-05-20T03:19:12.358Z,1.35
2023-05-20T03:21:38.908Z,1.42
2023-05-20T03:24:05.720Z,1.80
2023-05-20T03:26:33.929Z,1.42
2023-05-20T03:29:06.414Z,1.40
2023-05-20T03:31:33.213Z,1.60
2023-05-20T03:33:59.852Z,1.63
2023-05-20T03:36:32.926Z,1.33
2023-05-20T03:38:59.739Z,2.42
2023-05-20T03:41:26.467Z,1.52
2023-05-20T03:43:53.312Z,1.27
2023-05-20T03:46:19.885Z,1.75
2023-05-20T03:48:46.620Z,1.90
2023-05-20T03:51:13.886Z,2.47
2023-05-20T03:53:41.070Z,1.42
2023-05-20T03:56:07.965Z,1.85
2023-05-20T03:58:38.610Z,1.70
2023-05-20T04:01:05.896Z,2.33
2023-05-20T04:03:32.844Z,1.88
2023-05-20T04:06:00.117Z,2.08
2023-05-20T04:08:26.914Z,1.85
2023-05-20T04:11:00.455Z,1.88
2023-05-20T04:13:27.260Z,1.98
2023-05-20T04:15:54.062Z,1.83
2023-05-20T04:18:31.721Z,1.60
2023-05-20T04:21:00.071Z,1.73
2023-05-20T04:23:33.003Z,3.50
2023-05-20T04:26:02.531Z,1.90
2023-05-20T04:28:41.998Z,1.23
2023-05-20T04:31:08.722Z,1.92
2023-05-20T04:33:39.716Z,3.22
2023-05-20T04:36:20.521Z,1.65
2023-05-20T04:38:48.140Z,1.30
2023-05-20T04:41:16.035Z,1.48
2023-05-20T04:43:46.891Z,1.95
2023-05-20T04:46:14.764Z,1.67
2023-05-20T04:48:43.842Z,1.58
2023-05-20T04:51:11.308Z,2.03
2023-05-20T04:53:38.181Z,1.67
2023-05-20T04:59:10.616Z,2.97
2023-05-20T05:01:43.272Z,1.45
2023-05-20T05:04:09.930Z,2.40
2023-05-20T05:06:36.626Z,1.90
2023-05-20T05:09:24.546Z,1.38
2023-05-20T05:11:52.634Z,1.65
2023-05-20T05:14:31.692Z,2.22
2023-05-20T05:16:58.299Z,1.73
2023-05-20T05:19:36.536Z,1.42
2023-05-20T05:22:03.434Z,1.50
2023-05-20T05:24:42.970Z,1.25
2023-05-20T05:27:09.754Z,1.15
2023-05-20T05:29:51.554Z,1.20
2023-05-20T05:32:19.394Z,1.50
2023-05-20T05:34:52.482Z,0.95
2023-05-20T05:37:19.598Z,1.30
2023-05-20T05:39:53.022Z,1.05
2023-05-20T05:42:19.715Z,1.10
2023-05-20T05:44:53.103Z,1.40
2023-05-20T05:47:21.502Z,1.25
2023-05-20T05:49:57.293Z,1.08
2023-05-20T05:52:24.122Z,1.52
2023-05-20T05:55:03.597Z,1.13
2023-05-20T05:57:32.719Z,1.10
2023-05-20T06:00:01.268Z,1.05
2023-05-20T06:02:36.219Z,1.30
2023-05-20T06:05:06.546Z,1.13
2023-05-20T06:07:36.209Z,1.27
2023-05-20T06:10:12.329Z,1.17
2023-05-20T06:12:38.969Z,0.88
2023-05-20T06:15:09.322Z,1.05
2023-05-20T06:17:35.932Z,0.85
2023-05-20T06:20:02.694Z,0.93
2023-05-20T06:22:48.546Z,1.15
2023-05-20T06:25:47.811Z,1.27
2023-05-20T06:29:21.227Z,0.82
2023-05-20T06:32:13.219Z,0.77
2023-05-20T06:34:49.437Z,1.35
2023-05-20T06:37:28.960Z,0.63
2023-05-20T06:39:55.956Z,0.80
2023-05-20T06:42:27.288Z,1.63
2023-05-20T06:45:31.465Z,1.10
2023-05-20T06:49:06.935Z,0.93
2023-05-20T06:51:33.565Z,0.82
2023-05-20T06:54:00.862Z,1.02
2023-05-20T06:56:27.612Z,0.98
2023-05-20T06:58:55.221Z,0.73
2023-05-20T07:01:21.938Z,0.60
2023-05-20T07:03:48.588Z,1.33
2023-05-20T07:06:18.428Z,0.75
2023-05-20T07:09:29.529Z,0.50
2023-05-20T07:12:13.992Z,0.80
2023-05-20T07:14:43.698Z,0.77
2023-05-20T07:17:13.740Z,0.73
2023-05-20T07:26:23.141Z,0.85
2023-05-20T07:28:52.808Z,0.63
2023-05-20T07:31:24.576Z,0.55
2023-05-20T07:33:56.758Z,0.60
2023-05-20T07:36:29.822Z,0.60
2023-05-20T07:39:03.650Z,0.90
2023-05-20T07:41:36.068Z,0.55
2023-05-20T07:44:04.819Z,0.60
2023-05-20T07:46:34.521Z,0.50
2023-05-20T07:49:01.323Z,0.43
2023-05-20T07:51:34.215Z,0.73
2023-05-20T07:54:26.886Z,0.50
2023-05-20T07:56:53.924Z,0.57
2023-05-20T07:59:26.981Z,0.30
2023-05-20T08:01:54.304Z,0.60
2023-05-20T08:04:35.433Z,0.45
2023-05-20T08:07:09.194Z,0.35
2023-05-20T08:10:30.545Z,0.43
2023-05-20T08:13:02.500Z,0.20
2023-05-20T08:15:29.982Z,0.50
2023-05-20T08:17:58.554Z,0.30
2023-05-20T08:20:30.912Z,0.40
2023-05-20T08:23:03.128Z,1.00
2023-05-20T08:25:30.489Z,0.50
2023-05-20T08:27:57.208Z,0.73
2023-05-20T08:35:10.898Z,0.47
2023-05-20T08:37:53.078Z,0.50
2023-05-20T08:40:21.411Z,1.23
2023-05-20T08:42:53.946Z,0.30
2023-05-20T08:48:37.671Z,0.30
2023-05-20T08:51:55.151Z,0.32
2023-05-20T08:55:12.003Z,0.35
2023-05-20T08:57:45.739Z,0.95
2023-05-20T09:00:17.171Z,0.40
2023-05-20T09:02:46.905Z,0.25
2023-05-20T09:05:26.354Z,0.52
2023-05-20T09:08:09.704Z,0.30
2023-05-20T09:10:40.443Z,0.30
2023-05-20T09:16:26.987Z,0.90
2023-05-20T09:18:57.187Z,0.47
2023-05-20T09:21:30.272Z,0.47
2023-05-20T09:23:59.760Z,0.40
2023-05-20T09:29:26.424Z,0.43
2023-05-20T09:31:56.518Z,0.88
2023-05-20T09:34:23.290Z,0.30
2023-05-20T09:36:59.759Z,0.30
2023-05-20T09:42:53.076Z,0.95
2023-05-20T09:45:20.597Z,0.35
2023-05-20T09:47:47.734Z,0.38
2023-05-20T09:50:21.699Z,0.90
2023-05-20T09:53:50.551Z,0.45
2023-05-20T09:57:07.034Z,0.85
2023-05-20T09:59:37.106Z,0.52
2023-05-20T10:02:05.847Z,0.40
2023-05-20T10:04:35.923Z,0.47
2023-05-20T10:07:40.534Z,0.52
2023-05-20T10:10:48.582Z,0.40
2023-05-20T10:13:33.567Z,0.30
2023-05-20T10:16:36.864Z,0.60
2023-05-20T10:19:57.007Z,0.30
2023-05-20T10:22:32.591Z,0.60
2023-05-20T10:28:09.930Z,0.52
2023-05-20T10:34:16.287Z,0.40
2023-05-20T10:37:00.953Z,0.50
2023-05-20T10:39:35.200Z,0.63
2023-05-20T10:42:08.648Z,0.40
2023-05-20T10:45:01.436Z,0.28
2023-05-20T10:48:15.254Z,0.47
2023-05-20T10:50:55.848Z,0.65
2023-05-20T10:53:33.454Z,0.40
2023-05-20T10:56:29.452Z,0.43
2023-05-20T10:58:59.463Z,0.70
2023-05-20T11:01:28.117Z,0.40
2023-05-20T11:04:01.202Z,0.63
2023-05-20T11:06:50.010Z,0.55
2023-05-20T11:09:27.422Z,0.38
2023-05-20T11:11:55.655Z,0.32
2023-05-20T11:14:25.490Z,0.32
2023-05-20T11:16:56.550Z,0.32
2023-05-20T11:19:51.492Z,0.40
2023-05-20T11:22:32.376Z,0.57
2023-05-20T11:26:20.110Z,0.63
2023-05-20T11:28:51.795Z,0.50
2023-05-20T11:31:19.222Z,0.43
2023-05-20T11:34:07.408Z,0.35
2023-05-20T11:36:34.214Z,0.50
2023-05-20T11:39:00.977Z,0.35
2023-05-20T11:41:28.852Z,1.00
2023-05-20T11:44:13.350Z,0.17
2023-05-20T11:47:00.598Z,1.75
2023-05-20T11:49:49.286Z,0.25
2023-05-20T11:52:41.247Z,0.52
2023-05-20T11:55:11.336Z,0.30
2023-05-20T11:57:44.122Z,0.57
2023-05-20T12:00:16.808Z,0.45
2023-05-20T12:02:52.479Z,0.43
2023-05-20T12:07:45.835Z,1.08
2023-05-20T12:10:13.793Z,0.17
2023-05-20T12:12:40.480Z,0.40
2023-05-20T12:15:12.567Z,0.57
2023-05-20T12:17:54.807Z,0.40
2023-05-20T12:20:24.546Z,0.40
2023-05-20T12:25:41.604Z,0.32
2023-05-20T12:28:08.468Z,0.45
2023-05-20T12:30:35.260Z,0.55
2023-05-20T12:33:14.231Z,0.57
2023-05-20T12:35:59.950Z,0.55
2023-05-20T12:38:47.048Z,0.22
2023-05-20T12:41:14.392Z,0.45
2023-05-20T12:43:40.959Z,0.20
2023-05-20T12:46:13.545Z,0.40
2023-05-20T12:48:46.287Z,0.25
2023-05-20T12:51:12.897Z,0.30
2023-05-20T12:53:51.093Z,0.60
2023-05-20T12:56:47.277Z,0.38
2023-05-20T12:59:25.024Z,0.60
2023-05-20T13:02:16.927Z,0.38
2023-05-20T13:04:54.889Z,0.40
2023-05-20T13:07:26.854Z,0.50
2023-05-20T13:10:10.447Z,0.43
2023-05-20T13:13:00.560Z,0.38
2023-05-20T13:15:27.248Z,0.17
2023-05-20T13:17:54.500Z,0.28
2023-05-20T13:20:21.518Z,0.30
2023-05-20T13:22:50.903Z,0.20
2023-05-20T13:25:20.001Z,0.43
2023-05-20T13:27:47.320Z,0.10
2023-05-20T13:30:13.941Z,0.40
2023-05-20T13:32:51.617Z,0.50
2023-05-20T13:35:18.415Z,0.65
2023-05-20T13:37:45.095Z,0.20
2023-05-20T13:40:12.857Z,0.30
2023-05-20T13:42:39.601Z,0.22
2023-05-20T13:45:09.774Z,0.65
2023-05-20T13:47:38.624Z,0.22
2023-05-20T13:50:09.690Z,0.50
2023-05-20T13:52:38.676Z,0.73
2023-05-20T13:55:11.469Z,0.30
2023-05-20T13:57:44.338Z,0.32
2023-05-20T14:00:23.036Z,0.20
2023-05-20T14:05:33.289Z,0.47
2023-05-20T14:10:39.030Z,0.40
2023-05-20T14:13:09.058Z,0.85
2023-05-20T14:15:36.213Z,0.20
2023-05-20T14:18:38.263Z,0.40
2023-05-20T14:21:05.119Z,0.30
2023-05-20T14:24:23.935Z,0.47
2023-05-20T14:27:19.862Z,0.60
2023-05-20T14:29:55.629Z,0.73
2023-05-20T14:32:47.089Z,0.20
2023-05-20T14:35:13.863Z,0.30
2023-05-20T14:40:47.502Z,0.43
2023-05-20T14:43:34.539Z,0.60
2023-05-20T14:46:03.778Z,0.55
2023-05-20T14:48:30.550Z,0.38
2023-05-20T14:51:09.422Z,0.40
2023-05-20T14:53:36.146Z,0.20
2023-05-20T14:56:02.979Z,0.32
2023-05-20T14:58:29.793Z,0.52
2023-05-20T15:00:56.919Z,0.30
2023-05-20T15:03:28.038Z,0.30
2023-05-20T15:05:54.860Z,0.57
2023-05-20T15:08:38.046Z,0.20
2023-05-20T15:11:39.930Z,0.32
2023-05-20T15:14:34.624Z,0.10
2023-05-20T15:17:01.282Z,0.30
2023-05-20T15:19:38.949Z,0.28
2023-05-20T15:22:08.466Z,1.17
2023-05-20T15:24:59.553Z,0.40
2023-05-20T15:27:42.246Z,0.13
2023-05-20T15:30:13.593Z,0.15
2023-05-20T15:32:49.344Z,0.20
2023-05-20T15:37:51.784Z,0.20
2023-05-20T15:40:18.495Z,0.38
2023-05-20T15:42:45.624Z,0.25
2023-05-20T15:45:50.896Z,0.70
2023-05-20T15:48:22.095Z,0.25
2023-05-20T15:50:52.389Z,0.52
2023-05-20T15:53:19.003Z,0.82
2023-05-20T15:56:33.556Z,0.30
2023-05-20T15:59:00.165Z,0.50
2023-05-20T16:01:28.649Z,0.20
2023-05-20T16:03:57.809Z,0.32
2023-05-20T16:06:51.122Z,0.30
2023-05-20T16:09:24.657Z,0.30
2023-05-20T16:11:51.375Z,0.57
2023-05-20T16:14:24.421Z,0.22
2023-05-20T16:16:51.078Z,0.22
2023-05-20T16:19:20.726Z,0.35
2023-05-20T16:24:23.301Z,0.25
2023-05-20T16:26:49.869Z,0.68
2023-05-20T16:29:34.427Z,0.52
2023-05-20T16:32:01.248Z,1.02
2023-05-20T16:34:28.084Z,0.30
2023-05-20T16:37:07.012Z,0.57
2023-05-20T16:39:33.630Z,0.20
2023-05-20T16:42:06.148Z,0.20
2023-05-20T16:44:38.454Z,0.80
2023-05-20T16:47:17.604Z,0.40
2023-05-20T16:49:44.191Z,0.98
2023-05-20T16:52:11.041Z,0.68
2023-05-20T16:54:41.348Z,0.45
2023-05-20T16:57:08.176Z,0.28
2023-05-20T16:59:38.177Z,0.60
2023-05-20T17:02:30.005Z,0.63
2023-05-20T17:05:00.528Z,0.20
2023-05-20T17:07:52.326Z,0.38
2023-05-20T17:13:32.744Z,0.50
2023-05-20T17:16:24.992Z,0.63
2023-05-20T17:18:58.767Z,0.20
2023-05-20T17:21:31.600Z,0.43
2023-05-20T17:23:58.598Z,0.32
2023-05-20T17:26:25.939Z,0.68
2023-05-20T17:28:55.511Z,0.30
2023-05-20T17:31:49.945Z,0.30
2023-05-20T17:34:38.820Z,0.20
2023-05-20T17:37:17.654Z,0.40
2023-05-20T17:40:15.676Z,0.30
2023-05-20T17:42:51.057Z,0.43
2023-05-20T17:45:17.708Z,0.32
2023-05-20T17:47:49.725Z,0.38
2023-05-20T17:50:16.787Z,0.30
2023-05-20T17:52:54.985Z,0.43
2023-05-20T17:55:47.693Z,0.35
2023-05-20T17:58:34.766Z,0.20
2023-05-20T18:01:06.204Z,0.20
2023-05-20T18:03:36.470Z,1.08
2023-05-20T18:06:05.954Z,0.25
2023-05-20T18:08:33.791Z,0.40
2023-05-20T18:11:00.346Z,0.20
2023-05-20T18:13:30.630Z,0.35
2023-05-20T18:15:57.253Z,0.25
2023-05-20T18:18:32.582Z,0.88
2023-05-20T18:20:59.495Z,0.35
2023-05-20T18:23:29.393Z,0.47
2023-05-20T18:25:56.072Z,0.30
2023-05-20T18:31:03.171Z,0.40
2023-05-20T18:33:29.855Z,0.22
2023-05-20T18:35:56.828Z,0.25
2023-05-20T18:38:25.683Z,1.27
2023-05-20T18:40:58.470Z,0.50
2023-05-20T18:45:57.581Z,0.30
2023-05-20T18:48:42.540Z,0.20
2023-05-20T18:51:59.268Z,0.32
2023-05-20T18:54:46.728Z,0.50
2023-05-20T18:57:27.340Z,0.47
2023-05-20T19:00:19.547Z,0.40
2023-05-20T19:02:46.367Z,0.50
2023-05-20T19:05:38.875Z,0.32
2023-05-20T19:08:06.228Z,0.52
2023-05-20T19:10:57.869Z,0.30
2023-05-20T19:13:25.115Z,0.30
2023-05-20T19:15:55.584Z,0.22
2023-05-20T19:18:22.212Z,0.20
2023-05-20T19:21:14.610Z,0.65
2023-05-20T19:23:41.596Z,0.40
2023-05-20T19:26:14.342Z,0.35
2023-05-20T19:28:44.460Z,0.20
2023-05-20T19:32:15.144Z,0.70
2023-05-20T19:34:46.696Z,0.20
2023-05-20T19:37:53.012Z,0.30
2023-05-20T19:40:33.716Z,1.10
2023-05-20T19:43:12.648Z,0.43
2023-05-20T19:45:39.526Z,0.40
2023-05-20T19:48:14.816Z,0.57
2023-05-20T19:51:07.012Z,0.40
2023-05-20T19:53:42.104Z,0.52
2023-05-20T19:56:24.945Z,0.50
2023-05-20T19:58:51.879Z,0.65
2023-05-20T20:01:51.808Z,0.40
2023-05-20T20:04:19.234Z,0.40
2023-05-20T20:07:14.010Z,0.20
2023-05-20T20:09:55.376Z,0.40
2023-05-20T20:12:22.470Z,0.40
2023-05-20T20:14:49.403Z,0.77
2023-05-20T20:17:45.563Z,0.30
2023-05-20T20:20:26.792Z,0.40
2023-05-20T20:22:53.553Z,0.50
2023-05-20T20:25:20.464Z,0.32
2023-05-20T20:28:11.980Z,0.70
2023-05-20T20:31:04.153Z,0.43
2023-05-20T20:33:43.920Z,0.43
2023-05-20T20:36:10.523Z,0.57
2023-05-20T20:38:37.585Z,0.52
2023-05-20T20:41:13.256Z,0.57
2023-05-20T20:43:39.901Z,0.45
2023-05-20T20:46:06.808Z,0.32
2023-05-20T20:48:34.558Z,0.45
2023-05-20T20:56:13.015Z,0.30
2023-05-20T20:58:42.468Z,0.60
2023-05-20T21:01:10.115Z,0.40
2023-05-20T21:03:40.652Z,0.60
2023-05-20T21:06:19.389Z,0.28
2023-05-20T21:08:46.095Z,0.40
2023-05-20T21:11:12.975Z,1.00
2023-05-20T21:13:40.671Z,0.40
2023-05-20T21:16:29.859Z,0.45
2023-05-20T21:18:54.902Z,0.70
2023-05-20T21:21:31.721Z,0.40
2023-05-20T21:23:58.591Z,0.60
2023-05-20T21:26:34.713Z,0.30
2023-05-20T21:31:28.177Z,0.40
2023-05-20T21:36:38.057Z,0.45
2023-05-20T21:39:18.702Z,0.30
2023-05-20T21:45:36.468Z,1.35
2023-05-20T21:48:05.506Z,0.47
2023-05-20T21:50:34.956Z,0.50
2023-05-20T21:53:01.600Z,0.60
2023-05-20T21:55:29.172Z,0.50
2023-05-20T21:58:01.951Z,0.50
2023-05-20T22:00:28.676Z,0.40
2023-05-20T22:02:55.920Z,0.30
2023-05-20T22:05:22.605Z,0.90
2023-05-20T22:08:14.313Z,0.45
2023-05-20T22:13:25.988Z,0.35
2023-05-20T22:15:53.488Z,0.40
2023-05-20T22:18:22.432Z,0.55
2023-05-20T22:20:49.627Z,0.40
2023-05-20T22:23:31.446Z,0.75
2023-05-20T22:25:58.162Z,0.75
2023-05-20T22:28:26.111Z,0.60
2023-05-20T22:31:19.283Z,1.17
2023-05-20T22:33:45.922Z,0.60
2023-05-20T22:36:13.797Z,0.50
2023-05-20T22:38:40.389Z,0.50
2023-05-20T22:41:07.006Z,0.55
2023-05-20T22:43:33.738Z,0.60
2023-05-20T22:46:00.495Z,0.80
2023-05-20T22:48:27.074Z,0.57
2023-05-20T22:50:57.116Z,0.60
2023-05-20T22:53:23.841Z,0.50
2023-05-20T22:55:51.535Z,0.30
2023-05-20T22:58:18.138Z,0.70
2023-05-20T23:00:56.540Z,0.40
2023-05-20T23:03:23.385Z,0.50
2023-05-20T23:08:31.036Z,0.38
2023-05-20T23:10:57.608Z,0.45
2023-05-20T23:13:26.188Z,0.80
2023-05-20T23:16:31.818Z,0.52
2023-05-20T23:18:58.447Z,0.45
2023-05-20T23:21:40.662Z,1.20
2023-05-20T23:24:07.274Z,0.43
2023-05-20T23:26:34.572Z,0.68
2023-05-20T23:29:09.238Z,0.65
2023-05-20T23:31:36.064Z,0.30
2023-05-20T23:34:09.994Z,0.60
2023-05-20T23:36:37.223Z,0.52
2023-05-20T23:39:04.031Z,0.43
2023-05-20T23:41:36.733Z,0.40
2023-05-20T23:44:03.931Z,0.57
2023-05-20T23:46:30.621Z,0.50
2023-05-20T23:48:57.248Z,0.43
2023-05-20T23:51:49.493Z,0.70
2023-05-20T23:54:23.693Z,0.60
2023-05-20T23:56:50.966Z,0.60
2023-05-20T23:59:17.638Z,0.47
